Time;durP1;ratioP1;P1;durP2;ratioP2;P2;SDS_P1;SDS_P2;PMS_P1;PMS_P2;Temp;Humidity;BMP_temperature;BMP_pressure;BME280_temperature;BME280_humidity;BME280_pressure;Samples;Min_cycle;Max_cycle;Signal;HPM_P1;HPM_P2
2023/02/18 00:01:20;;;;;;;28.15;10.25;;;;;;;4.41;49.39;94637.53;5103469;28;20024;-75
2023/02/18 00:03:46;;;;;;;22.95;10.00;;;;;;;4.40;49.77;94643.09;5103395;28;20032;-75
2023/02/18 00:06:15;;;;;;;16.65;8.02;;;;;;;4.33;49.74;94643.28;5103326;28;20026;-75
2023/02/18 00:08:41;;;;;;;20.15;9.27;;;;;;;4.31;50.07;94637.47;5103421;28;20028;-74
2023/02/18 00:11:08;;;;;;;22.05;8.35;;;;;;;4.21;50.35;94638.22;5103202;28;20019;-74
2023/02/18 00:13:33;;;;;;;18.60;9.15;;;;;;;4.18;50.70;94632.66;5103344;28;20099;-75
2023/02/18 00:16:04;;;;;;;20.85;8.70;;;;;;;4.10;50.17;94627.84;5103152;28;20027;-75
2023/02/18 00:18:29;;;;;;;19.48;9.82;;;;;;;4.02;51.25;94632.53;5103253;28;20222;-75
2023/02/18 00:20:55;;;;;;;23.95;9.90;;;;;;;3.91;50.90;94616.88;5103198;28;20020;-75
2023/02/18 00:23:20;;;;;;;20.10;9.18;;;;;;;3.95;50.96;94617.97;5103401;28;20091;-75
2023/02/18 00:25:46;;;;;;;20.15;9.18;;;;;;;3.91;51.12;94607.13;5103104;28;20038;-75
2023/02/18 00:28:11;;;;;;;21.92;8.57;;;;;;;3.89;51.44;94611.88;5103009;28;20016;-74
2023/02/18 00:30:41;;;;;;;19.38;9.10;;;;;;;3.86;51.46;94598.38;5102893;28;20016;-75
2023/02/18 00:33:06;;;;;;;22.48;8.02;;;;;;;3.90;51.79;94597.63;5105569;28;20093;-75
2023/02/18 00:35:32;;;;;;;25.38;9.90;;;;;;;3.84;51.90;94596.00;5107178;28;20028;-75
2023/02/18 00:37:57;;;;;;;20.85;9.85;;;;;;;3.85;52.00;94588.88;5107145;28;20260;-75
2023/02/18 00:40:23;;;;;;;20.38;9.95;;;;;;;3.81;52.42;94594.66;5107136;28;20265;-75
2023/02/18 00:42:48;;;;;;;22.23;10.35;;;;;;;3.80;52.61;94593.06;5106580;28;20024;-75
2023/02/18 00:45:14;;;;;;;23.80;9.13;;;;;;;3.69;52.65;94575.59;5106777;28;20103;-75
2023/02/18 00:47:39;;;;;;;23.33;10.10;;;;;;;3.61;53.13;94600.56;5106685;28;20070;-75
2023/02/18 00:50:06;;;;;;;19.13;10.40;;;;;;;3.56;52.70;94594.44;5106725;28;20024;-75
2023/02/18 00:52:31;;;;;;;26.27;10.48;;;;;;;3.49;53.14;94591.22;5105661;28;20028;-75
2023/02/18 00:54:57;;;;;;;22.45;9.52;;;;;;;3.48;53.20;94608.91;5106799;28;20027;-75
2023/02/18 00:57:22;;;;;;;25.85;9.93;;;;;;;3.48;53.38;94603.63;5106774;28;20040;-75
2023/02/18 00:59:47;;;;;;;28.33;9.45;;;;;;;3.44;53.13;94588.53;5106781;28;20333;-75
2023/02/18 01:02:13;;;;;;;25.13;9.77;;;;;;;3.43;53.34;94595.66;5106819;28;20099;-75
2023/02/18 01:04:38;;;;;;;23.75;9.73;;;;;;;3.44;53.63;94593.81;5106774;28;20205;-75
2023/02/18 01:07:04;;;;;;;28.92;10.82;;;;;;;3.38;54.19;94599.03;5106571;28;20047;-75
2023/02/18 01:09:29;;;;;;;31.55;11.60;;;;;;;3.35;54.04;94593.47;5104846;28;20027;-75
2023/02/18 01:11:55;;;;;;;28.73;12.30;;;;;;;3.32;54.07;94592.13;5104699;28;20027;-75
2023/02/18 01:14:20;;;;;;;26.13;12.02;;;;;;;3.34;53.95;94584.00;5105254;28;20046;-75
2023/02/18 01:16:46;;;;;;;31.98;12.40;;;;;;;3.37;54.11;94575.56;5105358;28;20058;-75
2023/02/18 01:19:11;;;;;;;27.13;13.40;;;;;;;3.37;54.08;94594.03;5104520;28;20024;-75
2023/02/18 01:21:36;;;;;;;32.40;13.00;;;;;;;3.36;54.28;94589.81;5103418;28;20028;-75
2023/02/18 01:24:02;;;;;;;29.70;12.10;;;;;;;3.38;54.24;94593.00;5104559;28;20020;-74
2023/02/18 01:26:27;;;;;;;32.38;14.10;;;;;;;3.38;54.08;94585.09;5104336;28;20027;-75
2023/02/18 01:28:53;;;;;;;29.83;11.50;;;;;;;3.38;54.23;94577.97;5104360;28;20020;-78
2023/02/18 01:31:18;;;;;;;26.83;11.30;;;;;;;3.35;54.04;94570.53;5104497;28;20027;-77
2023/02/18 01:33:44;;;;;;;17.25;8.20;;;;;;;3.41;53.77;94580.09;5106038;28;20092;-77
2023/02/18 01:36:10;;;;;;;19.80;9.27;;;;;;;3.47;53.73;94583.56;5105819;28;20267;-78
2023/02/18 01:38:35;;;;;;;23.00;10.10;;;;;;;3.53;53.73;94582.56;5105951;28;20020;-77
2023/02/18 01:41:01;;;;;;;27.42;10.18;;;;;;;3.57;53.33;94578.38;5105968;28;20012;-77
2023/02/18 01:43:26;;;;;;;24.92;10.38;;;;;;;3.60;53.14;94571.81;5105816;28;20091;-77
2023/02/18 01:46:15;;;;;;;24.35;10.45;;;;;;;3.64;53.14;94582.66;5105724;28;20046;-77
2023/02/18 01:48:42;;;;;;;27.52;11.52;;;;;;;3.67;52.95;94584.78;5105640;28;20061;-78
2023/02/18 01:51:13;;;;;;;22.08;10.25;;;;;;;3.66;52.85;94602.44;5105579;28;20369;-78
2023/02/18 01:53:52;;;;;;;31.70;10.88;;;;;;;3.70;52.78;94592.19;5104603;28;20048;-77
2023/02/18 01:56:33;;;;;;;21.27;10.50;;;;;;;3.72;52.94;94608.56;5105626;28;20081;-77
2023/02/18 01:59:01;;;;;;;28.02;12.15;;;;;;;3.70;52.71;94592.97;5105566;28;20286;-77
2023/02/18 02:01:27;;;;;;;24.83;9.65;;;;;;;3.60;52.97;94613.97;5105424;28;20099;-76
2023/02/18 02:03:53;;;;;;;26.83;9.85;;;;;;;3.56;52.85;94615.53;5105736;28;20028;-76
2023/02/18 02:06:21;;;;;;;26.70;10.32;;;;;;;3.56;53.22;94610.25;5105073;28;20020;-76
2023/02/18 02:08:50;;;;;;;20.10;8.77;;;;;;;3.54;53.14;94607.91;5105391;28;20089;-76
2023/02/18 02:11:47;;;;;;;20.80;8.85;;;;;;;3.51;53.01;94618.91;5105435;28;20104;-76
2023/02/18 02:14:28;;;;;;;20.90;8.93;;;;;;;3.42;53.26;94591.44;5105174;28;20095;-76
2023/02/18 02:17:26;;;;;;;19.65;7.90;;;;;;;3.43;53.60;94598.28;5105162;28;20039;-77
2023/02/18 02:20:01;;;;;;;23.70;9.73;;;;;;;3.44;53.56;94584.09;5104860;28;20043;-76
2023/02/18 02:22:47;;;;;;;15.73;8.50;;;;;;;3.40;53.51;94562.69;5104933;28;20081;-77
2023/02/18 02:25:49;;;;;;;20.45;8.73;;;;;;;3.45;53.34;94584.88;5103904;28;20024;-78
2023/02/18 02:28:26;;;;;;;22.83;8.18;;;;;;;3.24;53.83;94575.97;5073386;28;20032;-78
2023/02/18 02:31:19;;;;;;;17.65;8.68;;;;;;;3.25;53.69;94569.66;5105079;28;20038;-77
2023/02/18 02:34:18;;;;;;;21.23;8.88;;;;;;;3.26;54.02;94584.41;5105185;28;20020;-77
2023/02/18 02:36:56;;;;;;;19.00;8.80;;;;;;;3.23;54.26;94564.63;5104758;28;20032;-77
2023/02/18 02:39:29;;;;;;;15.63;7.68;;;;;;;3.26;53.72;94582.59;5104794;28;20039;-77
2023/02/18 02:42:12;;;;;;;19.38;8.93;;;;;;;3.26;53.93;94574.69;5104999;28;20210;-77
2023/02/18 02:44:46;;;;;;;19.27;8.30;;;;;;;3.20;54.16;94573.06;5104631;28;20016;-77
2023/02/18 02:47:31;;;;;;;18.02;8.98;;;;;;;3.23;54.15;94562.00;5104391;28;20055;-78
2023/02/18 02:50:09;;;;;;;19.95;9.15;;;;;;;3.23;54.22;94551.47;5104440;28;20020;-78
2023/02/18 02:52:42;;;;;;;19.52;8.43;;;;;;;3.20;54.14;94551.97;5104409;28;20024;-78
2023/02/18 02:55:09;;;;;;;22.30;9.00;;;;;;;3.18;54.27;94554.06;5104014;28;20027;-78
2023/02/18 02:57:52;;;;;;;23.80;8.48;;;;;;;3.22;54.20;94549.88;5104478;28;20046;-78
2023/02/18 03:00:46;;;;;;;22.70;9.27;;;;;;;3.24;54.26;94573.31;5104318;28;20034;-78
2023/02/18 03:03:19;;;;;;;28.95;9.45;;;;;;;3.27;54.17;94559.66;5093056;28;20032;-78
2023/02/18 03:05:47;;;;;;;20.45;9.30;;;;;;;3.28;54.26;94574.41;5104317;28;20027;-78
2023/02/18 03:08:28;;;;;;;21.48;9.55;;;;;;;3.27;54.23;94583.38;5104279;28;20069;-78
2023/02/18 03:11:11;;;;;;;15.77;7.55;;;;;;;3.20;54.32;94587.00;5104242;28;20048;-77
2023/02/18 03:13:54;;;;;;;20.92;9.68;;;;;;;3.13;54.18;94590.88;5104013;28;20035;-77
2023/02/18 03:17:11;;;;;;;25.52;8.73;;;;;;;3.14;54.33;94597.75;5103911;28;20107;-77
2023/02/18 03:19:46;;;;;;;20.45;8.05;;;;;;;3.11;54.41;94598.25;5086352;28;20325;-77
2023/02/18 03:22:29;;;;;;;15.45;7.25;;;;;;;3.12;54.57;94587.47;5103963;28;20024;-77
2023/02/18 03:24:57;;;;;;;17.35;7.97;;;;;;;3.12;54.41;94590.09;5103914;28;20019;-77
2023/02/18 03:27:26;;;;;;;18.35;8.30;;;;;;;3.10;54.77;94589.53;5103919;28;20024;-77
2023/02/18 03:30:00;;;;;;;16.73;8.07;;;;;;;3.14;54.51;94590.66;5104036;28;20024;-77
2023/02/18 03:32:28;;;;;;;19.67;8.50;;;;;;;3.11;54.53;94604.28;5103838;28;20026;-77
2023/02/18 03:35:10;;;;;;;18.80;8.60;;;;;;;3.08;54.75;94609.28;5103853;28;20020;-77
2023/02/18 03:37:41;;;;;;;19.13;7.82;;;;;;;3.10;54.65;94617.72;5102439;28;20099;-76
2023/02/18 03:40:09;;;;;;;27.02;9.57;;;;;;;3.11;54.56;94625.38;5102377;28;20291;-76
2023/02/18 03:42:34;;;;;;;24.85;8.68;;;;;;;3.14;54.56;94627.53;5103574;28;20012;-76
2023/02/18 03:45:00;;;;;;;36.25;10.00;;;;;;;3.18;54.28;94625.19;5103410;28;20031;-76
2023/02/18 03:47:26;;;;;;;18.73;8.50;;;;;;;3.20;53.93;94625.75;5103458;28;20107;-76
2023/02/18 03:49:51;;;;;;;18.85;8.18;;;;;;;3.14;54.41;94634.63;5103475;28;20090;-76
2023/02/18 03:52:17;;;;;;;24.40;10.02;;;;;;;3.16;54.40;94645.72;5103385;28;20248;-76
2023/02/18 03:54:42;;;;;;;18.35;8.90;;;;;;;3.17;54.53;94652.56;5103273;28;20023;-76
2023/02/18 03:57:08;;;;;;;25.00;9.93;;;;;;;3.16;54.59;94648.34;5103288;28;20020;-76
2023/02/18 03:59:33;;;;;;;29.40;8.98;;;;;;;3.15;54.67;94639.63;5103144;28;20016;-76
2023/02/18 04:01:59;;;;;;;26.13;10.40;;;;;;;3.11;54.66;94617.47;5103329;28;20130;-76
2023/02/18 04:04:25;;;;;;;26.33;9.50;;;;;;;3.06;54.99;94614.78;5103385;28;20037;-76
2023/02/18 04:06:50;;;;;;;19.58;8.82;;;;;;;3.11;54.77;94616.69;5102342;28;20020;-76
2023/02/18 04:09:16;;;;;;;25.75;10.23;;;;;;;3.08;54.85;94612.72;5103067;28;20090;-76
2023/02/18 04:11:41;;;;;;;21.05;9.45;;;;;;;3.06;55.11;94604.25;5103253;28;20043;-76
2023/02/18 04:14:07;;;;;;;21.70;10.27;;;;;;;3.03;55.26;94610.00;5103079;28;20032;-76
2023/02/18 04:16:33;;;;;;;28.38;9.90;;;;;;;3.00;55.58;94610.50;5101902;28;20031;-76
2023/02/18 04:18:58;;;;;;;17.98;8.45;;;;;;;2.95;55.55;94600.72;5103075;28;20192;-76
2023/02/18 04:21:24;;;;;;;25.20;10.63;;;;;;;2.95;55.71;94602.53;5102922;28;20019;-76
2023/02/18 04:23:50;;;;;;;24.02;10.05;;;;;;;2.95;55.80;94603.34;5103143;28;20047;-76
2023/02/18 04:26:15;;;;;;;26.17;9.32;;;;;;;2.87;55.87;94590.63;5102963;28;20065;-75
2023/02/18 04:28:41;;;;;;;20.90;9.43;;;;;;;2.86;55.88;94594.28;5102964;28;20318;-77
2023/02/18 04:31:06;;;;;;;29.08;11.18;;;;;;;2.87;56.20;94600.34;5102752;28;20026;-77
2023/02/18 04:33:32;;;;;;;18.80;9.15;;;;;;;2.85;56.00;94584.81;5102866;28;20069;-77
2023/02/18 04:35:57;;;;;;;22.70;9.13;;;;;;;2.86;55.46;94582.97;5102828;28;20024;-76
2023/02/18 04:38:22;;;;;;;24.83;8.75;;;;;;;2.84;55.46;94582.41;5103021;28;20020;-76
2023/02/18 04:40:48;;;;;;;25.80;8.50;;;;;;;2.76;55.76;94589.69;5102834;28;20261;-77
2023/02/18 04:43:13;;;;;;;23.27;8.25;;;;;;;2.82;56.30;94595.81;5102829;28;20043;-77
2023/02/18 04:45:38;;;;;;;19.27;7.70;;;;;;;2.74;55.93;94593.63;5102754;28;20026;-77
2023/02/18 04:48:04;;;;;;;18.50;8.63;;;;;;;2.76;55.89;94591.53;5102764;28;20092;-77
2023/02/18 04:50:30;;;;;;;19.52;7.93;;;;;;;2.82;56.10;94598.47;5102636;28;20326;-77
2023/02/18 04:52:56;;;;;;;26.73;9.25;;;;;;;2.79;56.04;94601.59;5102665;28;20023;-77
2023/02/18 04:55:21;;;;;;;21.00;8.55;;;;;;;2.75;55.97;94595.22;5102887;28;20026;-77
2023/02/18 04:57:47;;;;;;;26.75;8.23;;;;;;;2.67;56.53;94598.28;5102583;28;20253;-76
2023/02/18 05:00:15;;;;;;;24.45;8.57;;;;;;;2.69;56.41;94589.09;5102646;28;20039;-75
2023/02/18 05:02:41;;;;;;;18.10;8.45;;;;;;;2.73;56.32;94599.94;5102627;28;20020;-75
2023/02/18 05:05:07;;;;;;;21.38;8.02;;;;;;;2.71;56.32;94607.28;5102452;28;20100;-77
2023/02/18 05:07:32;;;;;;;18.92;8.10;;;;;;;2.73;56.43;94613.09;5102646;28;20077;-77
2023/02/18 05:09:58;;;;;;;17.02;8.27;;;;;;;2.75;56.71;94630.25;5102453;28;20114;-77
2023/02/18 05:12:23;;;;;;;18.50;7.63;;;;;;;2.76;56.76;94649.47;5102894;28;20020;-75
2023/02/18 05:14:48;;;;;;;20.55;7.95;;;;;;;2.76;56.49;94647.63;5102597;28;20053;-75
2023/02/18 05:17:14;;;;;;;21.60;9.25;;;;;;;2.76;56.24;94641.56;5102759;28;20020;-75
2023/02/18 05:19:39;;;;;;;26.70;9.23;;;;;;;2.68;56.59;94636.72;5106206;28;20027;-75
2023/02/18 05:22:05;;;;;;;20.63;8.30;;;;;;;2.68;57.00;94615.66;5106129;28;20020;-75
2023/02/18 05:24:30;;;;;;;20.88;9.90;;;;;;;2.65;57.08;94600.38;5106196;28;20065;-75
2023/02/18 05:26:55;;;;;;;19.02;8.02;;;;;;;2.65;56.97;94603.00;5106108;28;20054;-74
2023/02/18 05:29:21;;;;;;;21.48;9.18;;;;;;;2.70;57.03;94603.84;5105071;28;20091;-75
2023/02/18 05:31:46;;;;;;;19.38;8.20;;;;;;;2.76;56.71;94599.44;5106019;28;20020;-75
2023/02/18 05:34:12;;;;;;;35.28;13.82;;;;;;;2.81;56.44;94581.09;5106003;28;20306;-75
2023/02/18 05:36:37;;;;;;;51.50;20.25;;;;;;;2.89;56.25;94585.91;5105944;28;20039;-74
2023/02/18 05:39:03;;;;;;;50.42;21.25;;;;;;;2.97;56.23;94590.75;5105860;28;20041;-75
2023/02/18 05:41:28;;;;;;;64.75;26.83;;;;;;;3.04;55.92;94581.84;5105762;28;20020;-75
2023/02/18 05:46:38;;;;;;;36.53;12.38;;;;;;;3.18;55.91;94586.47;5105704;28;20097;-75
2023/02/18 05:49:03;;;;;;;17.38;8.95;;;;;;;3.17;55.46;94605.94;5105421;28;20295;-77
2023/02/18 05:51:29;;;;;;;20.55;9.73;;;;;;;3.20;55.46;94609.94;5105735;28;20016;-76
2023/02/18 05:53:54;;;;;;;23.45;10.48;;;;;;;3.27;55.53;94613.16;5105796;28;20020;-77
2023/02/18 05:56:20;;;;;;;20.70;10.55;;;;;;;3.34;56.21;94619.03;5105463;28;20024;-76
2023/02/18 05:58:46;;;;;;;21.75;9.13;;;;;;;3.41;56.01;94614.34;5105415;28;20061;-76
2023/02/18 06:01:11;;;;;;;20.23;9.07;;;;;;;3.49;55.63;94620.22;5105599;28;20026;-76
2023/02/18 06:03:37;;;;;;;35.95;10.73;;;;;;;3.54;55.64;94621.06;5105444;28;20024;-76
2023/02/18 06:06:02;;;;;;;38.60;12.27;;;;;;;3.61;55.48;94631.41;5105367;28;20024;-76
2023/02/18 06:08:28;;;;;;;38.05;13.20;;;;;;;3.68;54.96;94628.56;5105288;28;20333;-76
2023/02/18 06:10:53;;;;;;;33.85;13.07;;;;;;;3.77;54.94;94627.84;5104208;28;20085;-75
2023/02/18 06:13:19;;;;;;;44.78;11.07;;;;;;;3.85;54.66;94623.16;5105292;28;20039;-74
2023/02/18 06:15:45;;;;;;;38.90;11.90;;;;;;;3.92;54.70;94631.66;5105217;28;20024;-74
2023/02/18 06:18:10;;;;;;;26.88;10.43;;;;;;;3.89;54.56;94621.59;5104974;28;20338;-75
2023/02/18 06:20:35;;;;;;;36.47;10.23;;;;;;;3.87;54.17;94624.50;5103905;28;20024;-75
2023/02/18 06:23:01;;;;;;;38.50;10.40;;;;;;;3.87;54.48;94618.41;5103791;28;20023;-75
2023/02/18 06:25:26;;;;;;;38.47;11.40;;;;;;;3.93;54.48;94612.94;5103890;28;20038;-75
2023/02/18 06:27:52;;;;;;;26.55;11.18;;;;;;;4.02;54.06;94615.91;5105011;28;20378;-74
2023/02/18 06:30:17;;;;;;;31.73;10.70;;;;;;;4.11;54.04;94613.59;5103972;28;20035;-74
2023/02/18 06:32:43;;;;;;;34.42;11.55;;;;;;;4.17;53.91;94613.38;5104660;28;20326;-75
2023/02/18 06:35:08;;;;;;;27.85;9.60;;;;;;;4.28;53.27;94608.19;5104512;28;20024;-75
2023/02/18 06:37:34;;;;;;;28.88;10.80;;;;;;;4.37;52.87;94596.84;5104555;28;20030;-75
2023/02/18 06:39:59;;;;;;;28.70;11.73;;;;;;;4.44;52.15;94588.75;5104734;28;20030;-75
2023/02/18 06:42:24;;;;;;;34.45;9.63;;;;;;;4.55;52.04;94593.00;5105040;28;20226;-75
2023/02/18 06:44:50;;;;;;;28.83;10.13;;;;;;;4.64;52.32;94590.69;5104694;28;20047;-75
2023/02/18 06:47:15;;;;;;;30.15;11.43;;;;;;;4.71;52.13;94601.78;5104202;28;20219;-75
2023/02/18 06:49:41;;;;;;;27.42;10.90;;;;;;;4.78;51.98;94601.53;5104271;28;20110;-75
2023/02/18 06:52:06;;;;;;;35.65;12.63;;;;;;;4.85;51.88;94596.03;5104479;28;20055;-77
2023/02/18 06:54:33;;;;;;;40.30;13.55;;;;;;;4.91;52.31;94598.44;5104677;28;20024;-75
2023/02/18 06:56:58;;;;;;;58.33;13.13;;;;;;;5.02;51.77;94601.91;5104376;28;20199;-75
2023/02/18 06:59:23;;;;;;;63.65;14.65;;;;;;;5.14;51.32;94610.41;5104408;28;20059;-75
2023/02/18 07:01:49;;;;;;;39.17;13.20;;;;;;;5.16;51.60;94603.00;5104282;28;20048;-74
2023/02/18 07:04:14;;;;;;;54.75;13.77;;;;;;;5.24;51.76;94599.06;5104183;28;20023;-75
2023/02/18 07:06:40;;;;;;;43.28;13.32;;;;;;;5.35;51.64;94605.97;5104221;28;20087;-74
2023/02/18 07:09:05;;;;;;;54.25;14.07;;;;;;;5.46;51.13;94611.28;5104007;28;20242;-75
2023/02/18 07:11:31;;;;;;;50.55;14.00;;;;;;;5.44;51.40;94614.19;5104054;28;20031;-75
2023/02/18 07:13:56;;;;;;;37.15;13.88;;;;;;;5.41;51.94;94599.63;5104186;28;20065;-76
2023/02/18 07:16:21;;;;;;;42.63;12.65;;;;;;;5.46;51.17;94606.78;5104015;28;20031;-76
2023/02/18 07:18:47;;;;;;;38.90;12.88;;;;;;;5.56;51.33;94595.44;5103807;28;20314;-76
2023/02/18 07:21:12;;;;;;;30.48;12.90;;;;;;;5.69;51.31;94583.53;5103975;28;20020;-76
2023/02/18 07:23:38;;;;;;;39.83;15.60;;;;;;;5.83;51.29;94585.38;5103803;28;20047;-76
2023/02/18 07:26:09;;;;;;;46.38;15.80;;;;;;;6.01;51.16;94580.63;5103846;28;20020;-76
2023/02/18 07:28:35;;;;;;;51.00;15.65;;;;;;;6.15;51.01;94580.91;5103694;28;20095;-76
2023/02/18 07:31:01;;;;;;;70.68;22.67;;;;;;;6.30;50.58;94583.50;5103635;28;20020;-76
2023/02/18 07:33:26;;;;;;;66.80;23.25;;;;;;;6.45;49.45;94580.00;5103703;28;20035;-76
2023/02/18 07:35:53;;;;;;;56.95;16.73;;;;;;;6.61;48.05;94594.00;5103881;28;20094;-76
2023/02/18 07:38:18;;;;;;;20.40;10.57;;;;;;;6.72;46.73;94608.81;5103158;28;20057;-76
2023/02/18 07:40:44;;;;;;;30.10;10.38;;;;;;;6.79;46.50;94608.53;5103043;28;20027;-76
2023/02/18 07:43:09;;;;;;;25.38;9.88;;;;;;;6.90;46.29;94617.22;5103459;28;20046;-76
2023/02/18 07:45:37;;;;;;;25.13;9.98;;;;;;;6.99;46.32;94629.66;5103073;28;20015;-76
2023/02/18 07:48:03;;;;;;;29.80;9.73;;;;;;;7.12;45.42;94630.91;5103214;28;20040;-75
2023/02/18 07:50:33;;;;;;;20.52;9.68;;;;;;;7.21;45.41;94636.47;5103124;28;20031;-75
2023/02/18 07:52:59;;;;;;;26.77;10.90;;;;;;;7.32;45.07;94640.66;5103192;28;20027;-76
2023/02/18 07:55:47;;;;;;;31.67;9.82;;;;;;;7.43;44.85;94636.09;5103267;28;20028;-76
2023/02/18 07:58:10;;;;;;;19.98;9.13;;;;;;;7.51;44.74;94632.06;5102989;28;20322;-77
2023/02/18 08:00:36;;;;;;;26.15;9.60;;;;;;;7.58;44.41;94632.56;5103138;28;20069;-76
2023/02/18 08:03:01;;;;;;;31.73;10.35;;;;;;;7.67;44.25;94627.44;5103036;28;20219;-77
2023/02/18 08:05:27;;;;;;;23.00;9.57;;;;;;;7.73;43.97;94613.88;5102993;28;20031;-76
2023/02/18 08:07:52;;;;;;;26.75;9.43;;;;;;;7.85;43.90;94605.56;5103468;28;20079;-76
2023/02/18 08:10:17;;;;;;;37.88;10.25;;;;;;;7.94;43.97;94603.91;5103063;28;20036;-77
2023/02/18 08:12:43;;;;;;;30.98;9.15;;;;;;;8.11;43.78;94608.03;5102887;28;20028;-80
2023/02/18 08:15:09;;;;;;;26.50;10.32;;;;;;;8.31;45.59;94612.38;5102802;28;20027;-80
2023/02/18 08:17:34;;;;;;;20.70;9.63;;;;;;;8.48;44.05;94617.28;5102755;28;20068;-80
2023/02/18 08:19:59;;;;;;;23.45;9.27;;;;;;;8.58;44.57;94620.63;5102458;28;20015;-81
2023/02/18 08:22:25;;;;;;;34.15;9.98;;;;;;;8.71;43.66;94619.19;5103023;28;20088;-79
2023/02/18 08:24:53;;;;;;;24.23;8.80;;;;;;;8.87;42.90;94614.47;5102801;28;20291;-76
2023/02/18 08:27:18;;;;;;;37.75;9.93;;;;;;;8.95;43.20;94597.88;5102799;28;20046;-76
2023/02/18 08:29:44;;;;;;;35.72;11.48;;;;;;;9.05;41.57;94596.97;5102849;28;20027;-75
2023/02/18 08:32:09;;;;;;;37.97;10.90;;;;;;;9.14;40.94;94581.16;5103048;28;20028;-76
2023/02/18 08:34:35;;;;;;;26.98;9.75;;;;;;;9.20;40.74;94580.06;5102845;28;20317;-75
2023/02/18 08:37:01;;;;;;;33.85;9.73;;;;;;;9.26;40.61;94570.94;5103043;28;20038;-75
2023/02/18 08:39:26;;;;;;;32.63;10.35;;;;;;;9.33;40.86;94574.00;5102962;28;20020;-76
2023/02/18 08:41:51;;;;;;;45.30;10.32;;;;;;;9.41;39.68;94584.00;5103022;28;20304;-76
2023/02/18 08:44:17;;;;;;;24.17;9.45;;;;;;;9.43;39.39;94579.19;5102814;28;20027;-76
2023/02/18 08:46:42;;;;;;;32.05;8.88;;;;;;;9.43;39.29;94584.50;5102897;28;20108;-78
2023/02/18 08:49:08;;;;;;;30.65;8.90;;;;;;;9.53;39.69;94580.13;5102820;28;20191;-76
2023/02/18 08:51:34;;;;;;;23.25;9.60;;;;;;;9.64;39.47;94574.34;5102757;28;20091;-76
2023/02/18 08:53:59;;;;;;;21.52;8.48;;;;;;;9.57;37.65;94599.78;5105952;28;20075;-75
2023/02/18 08:56:25;;;;;;;22.90;7.93;;;;;;;9.59;37.97;94594.94;5106834;28;20330;-74
2023/02/18 08:58:50;;;;;;;33.38;9.55;;;;;;;9.68;38.17;94603.84;5106583;28;20210;-78
2023/02/18 09:01:16;;;;;;;20.13;8.73;;;;;;;9.80;37.58;94609.53;5106735;28;20040;-78
2023/02/18 09:03:41;;;;;;;16.90;7.85;;;;;;;9.90;37.33;94605.13;5106535;28;20024;-78
2023/02/18 09:06:07;;;;;;;24.52;9.25;;;;;;;9.93;37.09;94608.03;5106665;28;20086;-78
2023/02/18 09:08:33;;;;;;;23.67;9.93;;;;;;;10.03;37.09;94607.06;5106540;28;20084;-78
2023/02/18 09:11:01;;;;;;;27.05;10.13;;;;;;;10.05;37.15;94626.19;5106406;28;20019;-78
2023/02/18 09:13:27;;;;;;;20.00;9.13;;;;;;;10.07;37.01;94608.06;5106237;28;20028;-78
2023/02/18 09:16:00;;;;;;;26.98;9.23;;;;;;;10.09;37.14;94608.56;5106599;28;20020;-78
2023/02/18 09:18:26;;;;;;;22.30;8.82;;;;;;;10.12;36.86;94609.88;5106657;28;20028;-78
2023/02/18 09:20:55;;;;;;;26.50;9.80;;;;;;;10.15;36.88;94596.72;5106211;28;20031;-78
2023/02/18 09:23:20;;;;;;;25.60;9.52;;;;;;;10.19;36.19;94592.41;5106228;28;20032;-78
2023/02/18 09:25:46;;;;;;;25.30;10.25;;;;;;;10.21;36.23;94600.88;5106152;28;20360;-78
2023/02/18 09:28:11;;;;;;;25.15;10.25;;;;;;;10.23;35.86;94597.94;5106280;28;20044;-78
2023/02/18 09:30:38;;;;;;;30.33;9.95;;;;;;;10.23;36.25;94589.94;5105960;28;20285;-78
2023/02/18 09:33:04;;;;;;;18.65;7.88;;;;;;;10.29;36.36;94583.44;5106217;28;20028;-78
2023/02/18 09:35:29;;;;;;;33.47;9.63;;;;;;;10.37;36.55;94576.69;5105822;28;20027;-78
2023/02/18 09:37:55;;;;;;;22.40;9.57;;;;;;;10.47;36.66;94557.06;5105976;28;20024;-78
2023/02/18 09:40:26;;;;;;;28.80;8.80;;;;;;;10.58;36.85;94567.25;5105806;28;20024;-78
2023/02/18 09:42:55;;;;;;;27.92;9.15;;;;;;;10.70;36.09;94565.97;5106000;28;20058;-78
2023/02/18 09:45:20;;;;;;;28.27;9.85;;;;;;;10.77;36.06;94583.16;5105842;28;20035;-78
2023/02/18 09:47:47;;;;;;;24.15;9.75;;;;;;;10.89;35.67;94568.50;5105600;28;20052;-78
2023/02/18 09:50:23;;;;;;;18.00;9.20;;;;;;;10.98;35.72;94567.53;5105485;28;20077;-77
2023/02/18 09:52:49;;;;;;;24.58;10.00;;;;;;;11.14;35.65;94577.91;5105638;28;20016;-77
2023/02/18 09:55:22;;;;;;;25.65;9.25;;;;;;;11.29;34.59;94574.91;5105565;28;20026;-75
2023/02/18 09:57:53;;;;;;;30.10;9.40;;;;;;;11.37;34.69;94576.06;5105377;28;20078;-75
2023/02/18 10:00:25;;;;;;;26.87;9.60;;;;;;;11.37;35.00;94570.72;5105501;28;20030;-78
2023/02/18 10:02:56;;;;;;;26.23;9.48;;;;;;;11.40;34.81;94578.16;5105413;28;20433;-78
2023/02/18 10:05:23;;;;;;;28.52;9.60;;;;;;;11.40;34.48;94573.59;5102832;28;20318;-77
2023/02/18 10:07:53;;;;;;;33.90;10.82;;;;;;;11.45;34.55;94573.47;5105335;28;20023;-76
2023/02/18 10:10:41;;;;;;;23.10;9.23;;;;;;;11.57;36.22;94556.16;5105317;28;20054;-77
2023/02/18 10:13:16;;;;;;;29.10;9.27;;;;;;;11.73;35.47;94554.72;5104543;28;20054;-75
2023/02/18 10:15:43;;;;;;;42.35;10.10;;;;;;;11.88;35.08;94550.88;5103943;28;20027;-82
2023/02/18 10:18:32;;;;;;;25.10;10.05;;;;;;;12.09;34.83;94545.06;5103784;28;20039;-78
2023/02/18 10:21:20;;;;;;;33.78;10.43;;;;;;;12.17;33.71;94552.34;5103906;28;20028;-78
2023/02/18 10:23:51;;;;;;;29.63;9.68;;;;;;;12.24;32.87;94552.72;5103440;28;20016;-78
2023/02/18 10:26:18;;;;;;;19.55;10.30;;;;;;;12.31;32.99;94552.28;5102251;28;20110;-78
2023/02/18 10:28:44;;;;;;;28.00;10.23;;;;;;;12.40;33.11;94551.22;5104455;28;20068;-78
2023/02/18 10:31:17;;;;;;;23.80;10.18;;;;;;;12.52;32.57;94553.34;5103787;28;20085;-78
2023/02/18 10:33:57;;;;;;;31.10;10.55;;;;;;;12.57;32.66;94550.50;5103485;28;20016;-77
2023/02/18 10:36:33;;;;;;;18.70;9.75;;;;;;;12.67;32.83;94548.66;5104717;28;20032;-78
2023/02/18 10:39:16;;;;;;;40.47;9.65;;;;;;;12.84;32.79;94546.03;5104666;28;20023;-78
2023/02/18 10:41:54;;;;;;;25.10;9.60;;;;;;;13.02;32.46;94533.50;5104631;28;20090;-78
2023/02/18 10:44:34;;;;;;;27.35;9.40;;;;;;;13.12;32.42;94524.41;5104450;28;20059;-78
2023/02/18 10:47:18;;;;;;;29.70;10.38;;;;;;;13.30;31.76;94520.66;5104321;28;20392;-78
2023/02/18 10:50:13;;;;;;;22.20;9.20;;;;;;;13.30;31.68;94514.53;5104570;28;20020;-78
2023/02/18 10:52:46;;;;;;;27.58;11.52;;;;;;;13.46;31.33;94515.66;5073017;28;20108;-78
2023/02/18 10:55:17;;;;;;;25.45;9.75;;;;;;;13.59;31.41;94500.53;5103205;28;20314;-78
2023/02/18 10:57:52;;;;;;;28.40;9.30;;;;;;;13.84;31.97;94499.72;5104437;28;20248;-78
2023/02/18 11:00:26;;;;;;;19.13;8.32;;;;;;;14.09;31.21;94494.63;5104401;28;20032;-78
2023/02/18 11:03:16;;;;;;;26.50;8.90;;;;;;;14.02;30.07;94503.16;5104415;28;20020;-78
2023/02/18 11:05:42;;;;;;;22.95;9.02;;;;;;;14.07;29.90;94486.13;5104355;28;20028;-78
2023/02/18 11:08:12;;;;;;;21.25;8.80;;;;;;;14.27;30.43;94486.50;5104282;28;20023;-78
2023/02/18 11:10:41;;;;;;;17.38;8.95;;;;;;;14.41;30.45;94487.09;5104128;28;20396;-78
2023/02/18 11:13:09;;;;;;;29.55;9.23;;;;;;;14.58;30.44;94476.34;5103849;28;20015;-78
2023/02/18 11:15:35;;;;;;;33.30;11.80;;;;;;;14.76;30.27;94478.94;5103539;28;20012;-78
2023/02/18 11:18:25;;;;;;;27.92;9.38;;;;;;;14.90;29.52;94479.50;5103857;28;20019;-78
2023/02/18 11:20:57;;;;;;;26.25;9.35;;;;;;;15.00;29.52;94473.75;5102824;28;20051;-78
2023/02/18 11:23:23;;;;;;;;;;;;;;;15.07;29.66;94464.38;5104469;28;20031;-78
2023/02/18 11:25:56;;;;;;;19.90;8.35;;;;;;;15.09;29.34;94470.22;5103771;28;19949;-78
2023/02/18 11:28:27;;;;;;;17.73;8.65;;;;;;;15.10;29.94;94461.03;5103972;28;20027;-78
2023/02/18 11:30:56;;;;;;;26.85;9.07;;;;;;;15.13;29.53;94452.34;5103860;28;20371;-78
2023/02/18 11:33:37;;;;;;;28.13;9.63;;;;;;;15.19;28.76;94443.75;5103706;28;20315;-78
2023/02/18 11:36:37;;;;;;;19.58;8.70;;;;;;;15.15;28.80;94431.31;5103667;28;20047;-78
2023/02/18 11:39:16;;;;;;;20.90;8.52;;;;;;;15.23;28.83;94422.41;5103621;28;20020;-78
2023/02/18 11:41:53;;;;;;;29.45;8.35;;;;;;;15.30;28.88;94416.50;5103541;28;20024;-78